Time;durP1;ratioP1;P1;durP2;ratioP2;P2;SDS_P1;SDS_P2;PMS_P1;PMS_P2;Temp;Humidity;BMP_temperature;BMP_pressure;BME280_temperature;BME280_humidity;BME280_pressure;Samples;Min_cycle;Max_cycle;Signal;HPM_P1;HPM_P2
2020/12/01 00:01:57;;;;;;;36.43;17.50;;;4.20;91.80;;;;;;5027453;28;20486;-73
2020/12/01 00:04:23;;;;;;;35.13;16.67;;;4.20;91.80;;;;;;5029799;28;20163;-73
2020/12/01 00:06:49;;;;;;;33.20;16.83;;;4.20;91.90;;;;;;5029991;28;20042;-73
2020/12/01 00:09:15;;;;;;;32.80;16.77;;;4.20;91.90;;;;;;5029898;28;20038;-73
2020/12/01 00:11:40;;;;;;;35.27;17.40;;;4.20;91.90;;;;;;5032846;28;20038;-73
2020/12/01 00:14:06;;;;;;;34.37;17.20;;;4.20;91.90;;;;;;5031302;28;20054;-72
2020/12/01 00:16:32;;;;;;;35.90;17.83;;;4.20;92.00;;;;;;5027407;28;20030;-73
2020/12/01 00:18:59;;;;;;;35.23;17.00;;;4.20;92.00;;;;;;5007545;28;20068;-74
2020/12/01 00:21:26;;;;;;;34.33;17.77;;;4.30;92.00;;;;;;5012648;28;20040;-73
2020/12/01 00:23:52;;;;;;;35.23;17.50;;;4.30;92.00;;;;;;5010877;28;20042;-73
2020/12/01 00:26:19;;;;;;;33.63;18.20;;;4.30;92.00;;;;;;5011669;28;20411;-74
2020/12/01 00:28:45;;;;;;;30.50;15.50;;;4.30;92.00;;;;;;5013441;28;20045;-73
2020/12/01 00:31:11;;;;;;;35.23;17.17;;;4.30;92.10;;;;;;5011801;28;20040;-73
2020/12/01 00:33:38;;;;;;;28.17;15.30;;;4.40;92.10;;;;;;5015351;28;20049;-73
2020/12/01 00:36:04;;;;;;;30.30;15.27;;;4.40;92.10;;;;;;5015773;28;20506;-74
2020/12/01 00:38:30;;;;;;;32.63;16.37;;;4.40;92.20;;;;;;5011187;28;20046;-74
2020/12/01 00:40:56;;;;;;;31.13;16.53;;;4.40;92.10;;;;;;5012086;28;20038;-73
2020/12/01 00:43:22;;;;;;;30.03;15.73;;;4.40;92.40;;;;;;5011677;28;20026;-74
2020/12/01 00:45:48;;;;;;;29.83;16.40;;;4.50;92.20;;;;;;5011935;28;20026;-73
2020/12/01 00:48:15;;;;;;;32.07;16.17;;;4.50;92.20;;;;;;5012751;28;20446;-73
2020/12/01 00:50:41;;;;;;;32.73;16.43;;;4.50;92.20;;;;;;5012643;28;20030;-74
2020/12/01 00:53:07;;;;;;;31.57;16.40;;;4.50;92.10;;;;;;5012309;28;20029;-73
2020/12/01 00:55:34;;;;;;;31.43;17.03;;;4.40;92.30;;;;;;5011040;28;20025;-74
2020/12/01 00:58:01;;;;;;;31.90;16.03;;;4.50;92.20;;;;;;5011549;28;20069;-73
2020/12/01 01:00:29;;;;;;;28.30;15.53;;;4.50;92.30;;;;;;5011252;28;20026;-73
2020/12/01 01:03:05;;;;;;;33.60;18.30;;;4.50;92.20;;;;;;5010372;28;20034;-74
2020/12/01 01:05:31;;;;;;;33.83;17.80;;;4.50;92.20;;;;;;5011339;28;20041;-73
2020/12/01 01:07:56;;;;;;;32.80;17.37;;;4.50;92.30;;;;;;5012306;28;20057;-73
2020/12/01 01:10:31;;;;;;;35.13;17.53;;;4.50;92.20;;;;;;5011316;28;20045;-73
2020/12/01 01:12:57;;;;;;;34.13;18.37;;;4.50;92.30;;;;;;5010040;28;20418;-74
2020/12/01 01:15:28;;;;;;;32.43;16.80;;;4.50;92.30;;;;;;5012535;28;20037;-73
2020/12/01 01:17:54;;;;;;;36.78;18.52;;;4.50;92.30;;;;;;5010838;28;20042;-73
2020/12/01 01:20:20;;;;;;;33.17;17.43;;;4.50;92.30;;;;;;5010615;28;20034;-73
2020/12/01 01:22:46;;;;;;;36.17;17.83;;;4.60;92.30;;;;;;5010181;28;20049;-73
2020/12/01 01:25:12;;;;;;;36.10;18.50;;;4.50;92.30;;;;;;5011767;28;20041;-74
2020/12/01 01:27:38;;;;;;;33.73;17.37;;;4.60;92.30;;;;;;5012306;28;20030;-74
2020/12/01 01:30:05;;;;;;;39.57;19.50;;;4.50;92.30;;;;;;5011002;28;20514;-73
2020/12/01 01:32:31;;;;;;;39.53;20.50;;;4.60;92.40;;;;;;5011153;28;20490;-73
2020/12/01 01:34:56;;;;;;;37.70;18.90;;;4.60;92.40;;;;;;5012039;28;20069;-73
2020/12/01 01:37:22;;;;;;;37.97;19.50;;;4.50;92.40;;;;;;5011716;28;20077;-73
2020/12/01 01:39:48;;;;;;;36.63;18.63;;;4.50;92.40;;;;;;5012248;28;20589;-72
2020/12/01 01:42:14;;;;;;;37.03;18.90;;;4.60;92.40;;;;;;5009978;28;20063;-73
2020/12/01 01:44:40;;;;;;;41.00;20.87;;;4.60;92.50;;;;;;5010422;28;20494;-73
2020/12/01 01:47:20;;;;;;;40.97;20.47;;;4.60;92.70;;;;;;5010730;28;20411;-73
2020/12/01 01:49:50;;;;;;;41.60;20.03;;;4.60;92.50;;;;;;5011559;28;20038;-73
2020/12/01 01:52:39;;;;;;;40.45;20.73;;;4.60;92.40;;;;;;5010022;28;20323;-73
2020/12/01 01:55:10;;;;;;;39.03;20.13;;;4.60;92.40;;;;;;5010140;28;20038;-73
2020/12/01 01:57:36;;;;;;;36.37;19.93;;;4.60;92.50;;;;;;5011855;28;20052;-73
2020/12/01 02:00:19;;;;;;;34.33;18.63;;;4.60;92.50;;;;;;5010063;28;20089;-73
2020/12/01 02:02:44;;;;;;;38.27;19.87;;;4.60;92.50;;;;;;5010955;28;20068;-73
2020/12/01 02:05:10;;;;;;;36.27;19.30;;;4.60;92.50;;;;;;5011101;28;20415;-74
2020/12/01 02:07:36;;;;;;;34.67;18.03;;;4.60;92.60;;;;;;5010312;28;20117;-73
2020/12/01 02:10:02;;;;;;;39.90;20.23;;;4.60;92.50;;;;;;5009931;28;20129;-74
2020/12/01 02:12:28;;;;;;;38.30;20.10;;;4.60;92.60;;;;;;5010777;28;20124;-73
2020/12/01 02:15:07;;;;;;;37.30;19.30;;;4.60;92.60;;;;;;5010017;28;20120;-72
2020/12/01 02:17:35;;;;;;;38.97;20.87;;;4.60;92.60;;;;;;5011151;28;20440;-73
2020/12/01 02:20:10;;;;;;;39.03;20.83;;;4.60;92.60;;;;;;5011439;28;20038;-73
2020/12/01 02:22:36;;;;;;;37.70;20.43;;;4.60;92.60;;;;;;5010371;28;20550;-72
2020/12/01 02:25:03;;;;;;;41.80;21.03;;;4.60;92.60;;;;;;5011149;28;20034;-73
2020/12/01 02:27:29;;;;;;;41.40;20.87;;;4.60;92.60;;;;;;5010613;28;20030;-73
2020/12/01 02:29:57;;;;;;;40.53;21.03;;;4.60;92.90;;;;;;5009889;28;20403;-73
2020/12/01 02:32:26;;;;;;;38.40;19.73;;;4.60;92.70;;;;;;5008170;28;20033;-74
2020/12/01 02:34:54;;;;;;;37.17;19.43;;;4.60;92.60;;;;;;5010042;28;20072;-72
2020/12/01 02:37:24;;;;;;;42.30;20.97;;;4.60;92.80;;;;;;5009931;28;20314;-73
2020/12/01 02:39:50;;;;;;;37.85;20.80;;;4.70;92.70;;;;;;5010741;28;20502;-73
2020/12/01 02:42:22;;;;;;;44.30;22.07;;;4.60;92.60;;;;;;5008971;28;20136;-73
2020/12/01 02:44:48;;;;;;;40.77;20.67;;;4.60;92.60;;;;;;5009297;28;20406;-73
2020/12/01 02:47:14;;;;;;;41.03;20.63;;;4.60;92.60;;;;;;5010914;28;20426;-73
2020/12/01 02:49:40;;;;;;;40.87;21.57;;;4.60;92.60;;;;;;5009381;28;20049;-73
2020/12/01 02:52:06;;;;;;;43.33;21.90;;;4.60;92.60;;;;;;5010323;28;20033;-73
2020/12/01 02:54:31;;;;;;;39.43;21.20;;;4.60;92.90;;;;;;5009530;28;20036;-73
2020/12/01 02:56:57;;;;;;;43.10;22.00;;;4.60;92.80;;;;;;5009259;28;20042;-73
2020/12/01 02:59:26;;;;;;;43.53;22.30;;;4.60;92.80;;;;;;5010772;28;20438;-73
2020/12/01 03:01:51;;;;;;;44.33;21.37;;;4.60;92.80;;;;;;5009415;28;20049;-74
2020/12/01 03:04:17;;;;;;;43.30;21.33;;;4.70;92.80;;;;;;5009504;28;20030;-73
2020/12/01 03:06:43;;;;;;;40.40;21.27;;;4.60;92.70;;;;;;5010772;28;20384;-73
2020/12/01 03:09:14;;;;;;;43.63;21.73;;;4.70;92.70;;;;;;5010289;28;20040;-74
2020/12/01 03:11:39;;;;;;;42.88;20.85;;;4.60;92.70;;;;;;5010177;28;20450;-73
2020/12/01 03:14:05;;;;;;;44.03;21.70;;;4.60;92.70;;;;;;5010139;28;20038;-73
2020/12/01 03:16:31;;;;;;;45.50;23.00;;;4.60;92.70;;;;;;5010608;28;20088;-74
2020/12/01 03:18:57;;;;;;;45.87;23.10;;;4.60;92.80;;;;;;5009442;28;20038;-74
2020/12/01 03:21:22;;;;;;;42.20;20.67;;;4.60;92.80;;;;;;5010061;28;20042;-73
2020/12/01 03:23:48;;;;;;;44.43;22.87;;;4.60;92.80;;;;;;5009925;28;20073;-73
2020/12/01 03:26:17;;;;;;;43.57;21.90;;;4.60;92.80;;;;;;5010132;28;20416;-74
2020/12/01 03:28:43;;;;;;;45.90;23.00;;;4.60;92.80;;;;;;5009414;28;20121;-74
2020/12/01 03:31:11;;;;;;;48.53;22.50;;;4.60;92.80;;;;;;5010097;28;20561;-74
2020/12/01 03:33:37;;;;;;;46.60;22.63;;;4.60;92.80;;;;;;5009733;28;20522;-73
2020/12/01 03:36:03;;;;;;;47.03;23.33;;;4.60;92.80;;;;;;5010286;28;20042;-73
2020/12/01 03:38:28;;;;;;;42.03;22.37;;;4.60;92.80;;;;;;5009979;28;20505;-73
2020/12/01 03:40:54;;;;;;;47.27;22.20;;;4.60;92.80;;;;;;5010512;28;20440;-73
2020/12/01 03:43:20;;;;;;;47.00;23.43;;;4.60;92.80;;;;;;5009284;28;20145;-74
2020/12/01 03:45:46;;;;;;;44.90;21.90;;;4.60;92.80;;;;;;5014107;28;20091;-73
2020/12/01 03:48:11;;;;;;;46.60;23.53;;;4.60;92.90;;;;;;5012837;28;20136;-73
2020/12/01 03:50:37;;;;;;;47.53;22.43;;;4.60;92.90;;;;;;4996047;28;20398;-73
2020/12/01 03:53:03;;;;;;;47.43;22.17;;;4.60;92.80;;;;;;5013429;28;20033;-74
2020/12/01 03:55:29;;;;;;;44.40;22.50;;;4.60;92.80;;;;;;5013561;28;20065;-74
2020/12/01 03:57:55;;;;;;;48.97;23.23;;;4.60;92.90;;;;;;5013891;28;20100;-74
2020/12/01 04:00:24;;;;;;;46.97;21.90;;;4.60;92.80;;;;;;5012473;28;20037;-73
2020/12/01 04:02:50;;;;;;;47.80;22.63;;;4.60;92.90;;;;;;5012836;28;20046;-73
2020/12/01 04:05:18;;;;;;;44.47;21.27;;;4.60;92.80;;;;;;5012475;28;20057;-73
2020/12/01 04:07:44;;;;;;;45.17;21.73;;;4.50;92.90;;;;;;5013433;28;20180;-74
2020/12/01 04:10:13;;;;;;;47.17;21.83;;;4.50;92.90;;;;;;5013818;28;20040;-73
2020/12/01 04:12:40;;;;;;;50.13;23.47;;;4.50;92.90;;;;;;5012642;28;20405;-74
2020/12/01 04:15:06;;;;;;;49.40;22.97;;;4.50;92.90;;;;;;5011888;28;20052;-71
2020/12/01 04:17:32;;;;;;;50.13;24.27;;;4.50;93.00;;;;;;4995815;28;20494;-72
2020/12/01 04:19:57;;;;;;;49.17;23.53;;;4.50;93.00;;;;;;4978908;28;20038;-73
2020/12/01 04:22:23;;;;;;;45.37;22.20;;;4.50;93.00;;;;;;5012359;28;20034;-73
2020/12/01 04:24:49;;;;;;;47.87;23.80;;;4.50;93.00;;;;;;5012998;28;20046;-74
2020/12/01 04:27:16;;;;;;;46.90;22.90;;;4.50;93.00;;;;;;5012747;28;20513;-74
2020/12/01 04:29:41;;;;;;;46.20;22.23;;;4.50;93.20;;;;;;5012642;28;20042;-74
2020/12/01 04:32:08;;;;;;;49.63;23.63;;;4.50;93.00;;;;;;5011528;28;20045;-73
2020/12/01 04:34:34;;;;;;;48.37;23.23;;;4.50;93.00;;;;;;5012202;28;20041;-73
2020/12/01 04:37:02;;;;;;;50.17;23.30;;;4.50;93.00;;;;;;5010902;28;20578;-73
2020/12/01 04:39:28;;;;;;;47.57;23.13;;;4.50;93.10;;;;;;5011830;28;20038;-73
2020/12/01 04:41:55;;;;;;;48.70;22.33;;;4.50;93.00;;;;;;5011585;28;20057;-71
2020/12/01 04:44:39;;;;;;;48.37;23.40;;;4.50;93.10;;;;;;5010460;28;20416;-73
2020/12/01 04:47:20;;;;;;;47.17;22.87;;;4.50;93.10;;;;;;4992883;28;20049;-73
2020/12/01 04:49:54;;;;;;;48.35;23.38;;;4.50;93.10;;;;;;5012817;28;20037;-74
2020/12/01 04:52:52;;;;;;;47.13;21.80;;;4.50;93.10;;;;;;5012243;28;20096;-73
2020/12/01 04:55:55;;;;;;;46.03;21.83;;;4.50;93.10;;;;;;5008798;28;20029;-73
2020/12/01 04:58:39;;;;;;;46.50;20.63;;;4.50;93.10;;;;;;5011261;28;20049;-73
2020/12/01 05:01:25;;;;;;;48.93;22.80;;;4.50;93.10;;;;;;5011461;28;20049;-73
2020/12/01 05:03:57;;;;;;;48.30;22.10;;;4.50;93.10;;;;;;5012133;28;20818;-73
2020/12/01 05:09:41;;;;;;;45.60;22.23;;;4.50;93.20;;;;;;5012092;28;20034;-71
2020/12/01 05:12:32;;;;;;;46.17;22.60;;;4.50;93.20;;;;;;5012199;28;20689;-74
2020/12/01 05:15:26;;;;;;;45.93;22.47;;;4.50;93.20;;;;;;5006902;28;20038;-73
2020/12/01 05:18:23;;;;;;;46.13;20.67;;;4.50;93.10;;;;;;5011776;28;20100;-74
2020/12/01 05:20:53;;;;;;;48.43;22.73;;;4.50;93.10;;;;;;5010334;28;20038;-73
2020/12/01 05:23:44;;;;;;;48.88;22.08;;;4.40;93.10;;;;;;5011403;28;20503;-73
2020/12/01 05:26:13;;;;;;;43.58;19.85;;;4.40;93.20;;;;;;5010053;28;20260;-73
2020/12/01 05:28:51;;;;;;;46.57;21.87;;;4.40;93.20;;;;;;5012270;28;20034;-73
2020/12/01 05:31:20;;;;;;;46.43;22.23;;;4.50;93.20;;;;;;5010653;28;20501;-73
2020/12/01 05:34:01;;;;;;;48.10;21.67;;;4.40;93.20;;;;;;5011486;28;20041;-73
2020/12/01 05:36:32;;;;;;;;;;;4.40;93.20;;;;;;5010644;28;20033;-73
2020/12/01 05:39:13;;;;;;;50.75;23.88;;;4.50;93.20;;;;;;5012236;28;19996;-73
2020/12/01 05:41:42;;;;;;;47.93;22.27;;;4.50;93.30;;;;;;5011182;28;20530;-73
2020/12/01 05:44:26;;;;;;;44.70;21.77;;;4.50;93.30;;;;;;5010710;28;20050;-73
2020/12/01 05:46:56;;;;;;;51.83;25.63;;;4.50;93.30;;;;;;5011812;28;20160;-73
2020/12/01 05:49:43;;;;;;;48.17;22.67;;;4.40;93.20;;;;;;5011973;28;20034;-73
2020/12/01 05:52:20;;;;;;;46.97;21.40;;;4.50;93.20;;;;;;5011048;28;20038;-73
2020/12/01 05:54:48;;;;;;;49.27;22.73;;;4.40;93.20;;;;;;5011582;28;20104;-73
2020/12/01 05:57:32;;;;;;;42.97;20.43;;;4.40;93.30;;;;;;5011961;28;20044;-71
2020/12/01 06:00:05;;;;;;;51.60;23.67;;;4.40;93.20;;;;;;5011501;28;20093;-72
2020/12/01 06:03:14;;;;;;;45.93;20.77;;;4.50;93.30;;;;;;5010996;28;20103;-73
2020/12/01 06:05:44;;;;;;;42.70;19.83;;;4.40;93.20;;;;;;5010823;28;20037;-73
2020/12/01 06:08:18;;;;;;;47.43;22.33;;;4.40;93.20;;;;;;5010984;28;20056;-73
2020/12/01 06:10:57;;;;;;;47.80;22.53;;;4.40;93.30;;;;;;5010895;28;20034;-73
2020/12/01 06:13:42;;;;;;;41.93;19.70;;;4.40;93.30;;;;;;5010861;28;20434;-73
2020/12/01 06:16:07;;;;;;;44.03;20.07;;;4.40;93.20;;;;;;5011233;28;20144;-73
2020/12/01 06:19:09;;;;;;;43.80;20.20;;;4.40;93.20;;;;;;5011269;28;20120;-71
2020/12/01 06:21:41;;;;;;;47.60;21.23;;;4.40;93.30;;;;;;5009031;28;20061;-72
2020/12/01 06:24:30;;;;;;;46.43;22.10;;;4.30;93.30;;;;;;5017607;28;20041;-73
2020/12/01 06:27:31;;;;;;;47.93;23.63;;;4.30;93.30;;;;;;5030712;28;20504;-72
2020/12/01 06:30:15;;;;;;;41.90;19.60;;;4.30;93.30;;;;;;5022632;28;20036;-73
2020/12/01 06:32:59;;;;;;;50.03;23.60;;;4.30;93.40;;;;;;5029864;28;20137;-73
2020/12/01 06:35:43;;;;;;;45.57;22.03;;;4.30;93.40;;;;;;5030893;28;20402;-73
2020/12/01 06:38:47;;;;;;;46.57;21.10;;;4.30;93.40;;;;;;5030597;28;20083;-73
2020/12/01 06:41:16;;;;;;;50.10;22.43;;;4.30;93.40;;;;;;5017931;28;20413;-73
2020/12/01 06:43:49;;;;;;;47.90;22.40;;;4.30;93.40;;;;;;5028736;28;20625;-73
2020/12/01 06:46:32;;;;;;;48.80;21.83;;;4.30;93.40;;;;;;5030350;28;20045;-73
2020/12/01 06:49:00;;;;;;;51.73;22.47;;;4.30;93.40;;;;;;5030321;28;20038;-74
2020/12/01 06:51:26;;;;;;;49.33;22.90;;;4.20;93.40;;;;;;5030644;28;20497;-72
2020/12/01 06:53:51;;;;;;;50.50;22.03;;;4.30;93.50;;;;;;5029874;28;20516;-74
2020/12/01 06:56:18;;;;;;;51.53;22.40;;;4.20;93.50;;;;;;5012233;28;20046;-72
2020/12/01 06:58:46;;;;;;;51.87;24.00;;;4.30;93.50;;;;;;5029205;28;20037;-73
2020/12/01 07:01:17;;;;;;;45.57;22.27;;;4.30;93.70;;;;;;5027303;28;20037;-72
2020/12/01 07:03:45;;;;;;;52.47;23.67;;;4.30;93.50;;;;;;5029839;28;20049;-73
2020/12/01 07:06:22;;;;;;;49.80;22.87;;;4.30;93.50;;;;;;5030366;28;20041;-73
2020/12/01 07:08:48;;;;;;;50.37;22.83;;;4.30;93.50;;;;;;5030238;28;20038;-74
2020/12/01 07:11:47;;;;;;;44.73;21.40;;;4.30;93.50;;;;;;5030380;28;20061;-74
2020/12/01 07:14:30;;;;;;;52.70;22.23;;;4.30;93.60;;;;;;5030103;28;20033;-73
2020/12/01 07:16:56;;;;;;;51.50;22.47;;;4.30;93.50;;;;;;5012104;28;20096;-73
2020/12/01 07:19:31;;;;;;;47.33;22.17;;;4.30;93.50;;;;;;5033019;28;20037;-73
2020/12/01 07:22:14;;;;;;;50.80;21.50;;;4.30;93.50;;;;;;5033310;28;20045;-74
2020/12/01 07:24:51;;;;;;;51.03;22.93;;;4.30;93.60;;;;;;5034182;28;20466;-73
2020/12/01 07:27:27;;;;;;;64.97;29.67;;;4.30;93.70;;;;;;5032572;28;20033;-74
2020/12/01 07:30:25;;;;;;;47.67;22.90;;;4.30;93.60;;;;;;5034387;28;20432;-73
2020/12/01 07:32:57;;;;;;;47.13;21.83;;;4.30;93.60;;;;;;5031630;28;20030;-74
2020/12/01 07:35:55;;;;;;;46.47;20.90;;;4.30;93.60;;;;;;5032818;28;20040;-74
2020/12/01 07:38:39;;;;;;;49.17;22.07;;;4.40;93.70;;;;;;5030515;28;20046;-73
2020/12/01 07:41:31;;;;;;;42.97;20.80;;;4.30;93.60;;;;;;5033701;28;20056;-74
2020/12/01 07:44:10;;;;;;;45.37;20.67;;;4.30;93.60;;;;;;5032405;28;20041;-73
2020/12/01 07:49:19;;;;;;;45.70;21.00;;;4.30;93.70;;;;;;5033619;28;20033;-74
2020/12/01 07:51:46;;;;;;;43.73;20.67;;;4.40;93.60;;;;;;5033318;28;20034;-73
2020/12/01 07:54:20;;;;;;;42.93;20.07;;;4.40;93.60;;;;;;5033654;28;20037;-72
2020/12/01 07:56:46;;;;;;;48.23;21.50;;;4.40;93.90;;;;;;5032828;28;20037;-73
2020/12/01 07:59:13;;;;;;;45.70;21.13;;;4.40;93.60;;;;;;5032571;28;20087;-73
2020/12/01 08:01:41;;;;;;;47.70;21.30;;;4.40;93.70;;;;;;5031293;28;20068;-72
2020/12/01 08:04:16;;;;;;;46.90;20.93;;;4.40;93.70;;;;;;5014488;28;20391;-72
2020/12/01 08:06:43;;;;;;;48.97;22.63;;;4.40;93.60;;;;;;5030580;28;20041;-73
2020/12/01 08:09:23;;;;;;;47.73;20.73;;;4.50;93.70;;;;;;5032273;28;20033;-73
2020/12/01 08:11:53;;;;;;;40.05;20.40;;;4.50;93.70;;;;;;5029983;28;20116;-74
2020/12/01 08:14:19;;;;;;;44.40;21.47;;;4.50;93.60;;;;;;5030954;28;20669;-73
2020/12/01 08:17:02;;;;;;;47.20;22.63;;;4.50;93.60;;;;;;5031710;28;20041;-72
2020/12/01 08:19:29;;;;;;;45.60;21.60;;;4.50;93.60;;;;;;5032152;28;20110;-73
2020/12/01 08:21:56;;;;;;;50.33;22.57;;;4.50;93.60;;;;;;5029519;28;20072;-73
2020/12/01 08:24:24;;;;;;;47.90;22.43;;;4.50;93.60;;;;;;5014395;28;20033;-73
2020/12/01 08:27:04;;;;;;;43.23;19.60;;;4.60;93.70;;;;;;5030256;28;20172;-74
2020/12/01 08:29:34;;;;;;;40.83;19.83;;;4.60;93.70;;;;;;5029956;28;20041;-73
2020/12/01 08:32:06;;;;;;;45.35;20.17;;;4.60;93.70;;;;;;5030819;28;20132;-73
2020/12/01 08:34:36;;;;;;;47.77;22.00;;;4.60;93.60;;;;;;5030649;28;20534;-73
2020/12/01 08:37:20;;;;;;;45.67;21.73;;;4.60;93.60;;;;;;5031357;28;20052;-73
2020/12/01 08:40:10;;;;;;;43.73;19.50;;;4.60;93.60;;;;;;5030454;28;20067;-73
2020/12/01 08:43:11;;;;;;;41.60;19.30;;;4.50;93.60;;;;;;5030805;28;20414;-73
2020/12/01 08:45:53;;;;;;;45.78;21.05;;;4.60;93.60;;;;;;5030208;28;20033;-73
2020/12/01 08:48:27;;;;;;;46.07;21.23;;;4.60;93.60;;;;;;5031300;28;20096;-75
2020/12/01 08:51:04;;;;;;;44.30;20.70;;;4.60;93.70;;;;;;5013876;28;20029;-73
2020/12/01 08:53:31;;;;;;;46.23;20.63;;;4.70;93.70;;;;;;5030472;28;20038;-74
2020/12/01 08:55:58;;;;;;;42.80;19.83;;;4.70;93.80;;;;;;5031420;28;20052;-73
2020/12/01 08:58:27;;;;;;;40.23;19.13;;;4.70;93.70;;;;;;5031622;28;20033;-73
2020/12/01 09:01:19;;;;;;;42.80;20.20;;;4.80;93.60;;;;;;5029560;28;20095;-73
2020/12/01 09:03:57;;;;;;;42.07;20.33;;;4.80;93.80;;;;;;5030094;28;20450;-73
2020/12/01 09:06:36;;;;;;;40.37;19.43;;;4.80;93.50;;;;;;5031444;28;20053;-74
2020/12/01 09:09:10;;;;;;;43.67;20.27;;;4.80;93.70;;;;;;5030857;28;20502;-73
2020/12/01 09:16:53;;;;;;;41.90;20.40;;;4.90;93.70;;;;;;5031116;28;20057;-73
2020/12/01 09:22:22;;;;;;;41.00;19.50;;;4.90;93.30;;;;;;5029720;28;20053;-73
2020/12/01 09:24:48;;;;;;;39.80;19.90;;;4.90;93.30;;;;;;5031013;28;20045;-73
2020/12/01 09:27:17;;;;;;;39.07;18.60;;;4.90;93.40;;;;;;5030417;28;20033;-73
2020/12/01 09:29:50;;;;;;;39.27;19.73;;;4.90;93.50;;;;;;5029471;28;20040;-72
2020/12/01 09:32:21;;;;;;;40.40;20.23;;;5.00;93.30;;;;;;5029574;28;20657;-74
2020/12/01 09:34:47;;;;;;;46.45;20.55;;;4.90;93.40;;;;;;5030871;28;20422;-73
2020/12/01 09:37:13;;;;;;;41.73;19.83;;;4.90;93.30;;;;;;5030439;28;20069;-73
2020/12/01 09:39:39;;;;;;;44.73;20.90;;;4.90;93.50;;;;;;5030661;28;20045;-73
2020/12/01 09:47:18;;;;;;;40.15;20.02;;;5.10;93.40;;;;;;4989939;28;20125;-74
2020/12/01 09:49:44;;;;;;;37.57;19.67;;;5.10;93.40;;;;;;5011407;28;20069;-73
2020/12/01 09:52:15;;;;;;;38.73;19.43;;;5.20;93.40;;;;;;5015919;28;20263;-73
2020/12/01 09:54:51;;;;;;;37.83;18.47;;;5.10;93.30;;;;;;5029561;28;20116;-73
2020/12/01 10:00:26;;;;;;;45.53;21.43;;;5.10;93.20;;;;;;5022976;28;20461;-73
2020/12/01 10:25:22;;;;;;;42.90;20.70;;;5.10;93.30;;;;;;5030659;28;20037;-73
2020/12/01 10:35:33;;;;;;;35.13;17.00;;;5.20;93.20;;;;;;5030370;28;20034;-73
2020/12/01 10:38:00;;;;;;;43.83;19.97;;;5.20;93.00;;;;;;5029560;28;20168;-73
2020/12/01 10:40:27;;;;;;;45.27;21.10;;;5.20;93.00;;;;;;5029463;28;20052;-72
2020/12/01 10:42:53;;;;;;;39.17;19.63;;;5.20;93.10;;;;;;5029672;28;20123;-73
2020/12/01 10:45:21;;;;;;;38.03;19.00;;;5.20;93.20;;;;;;5029238;28;20046;-72
2020/12/01 10:47:48;;;;;;;43.30;20.20;;;5.20;93.10;;;;;;5028773;28;20498;-73
2020/12/01 10:50:15;;;;;;;40.57;19.43;;;5.20;93.10;;;;;;5030631;28;20468;-73
2020/12/01 10:52:41;;;;;;;41.33;20.73;;;5.20;92.90;;;;;;5029151;28;20091;-73
2020/12/01 10:55:08;;;;;;;44.63;20.90;;;5.20;93.10;;;;;;5029150;28;20045;-71
2020/12/01 10:57:35;;;;;;;39.13;20.00;;;5.30;93.00;;;;;;5030571;28;20429;-72
2020/12/01 11:00:06;;;;;;;40.43;19.03;;;5.20;93.10;;;;;;5028651;28;20843;-73
2020/12/01 11:02:32;;;;;;;;;;;5.30;93.10;;;;;;5030737;28;20048;-73
2020/12/01 11:04:58;;;;;;;38.67;19.23;;;5.30;93.20;;;;;;5028390;28;19956;-73
2020/12/01 11:07:24;;;;;;;38.00;18.63;;;5.30;93.30;;;;;;5030462;28;20037;-74
2020/12/01 11:09:49;;;;;;;37.67;18.73;;;5.40;93.40;;;;;;5041676;28;20067;-73
2020/12/01 11:12:15;;;;;;;35.90;19.20;;;5.40;93.30;;;;;;5030412;28;20042;-73
2020/12/01 11:14:41;;;;;;;41.70;20.17;;;5.40;93.10;;;;;;5049102;28;20045;-73
2020/12/01 11:17:07;;;;;;;41.83;19.67;;;5.40;93.10;;;;;;5039583;28;20099;-74
2020/12/01 11:19:32;;;;;;;39.93;18.40;;;5.50;93.10;;;;;;5037737;28;20044;-73
2020/12/01 11:21:58;;;;;;;38.67;18.40;;;5.50;93.10;;;;;;5022323;28;20098;-73
2020/12/01 11:24:24;;;;;;;39.27;19.17;;;5.50;93.10;;;;;;5035056;28;20117;-73
2020/12/01 11:26:50;;;;;;;42.20;18.97;;;5.50;93.10;;;;;;5030104;28;20033;-72
2020/12/01 11:29:16;;;;;;;41.10;19.87;;;5.60;93.00;;;;;;5029988;28;20421;-74
2020/12/01 11:31:45;;;;;;;44.80;20.90;;;5.50;92.80;;;;;;5028248;28;20087;-74
2020/12/01 11:34:12;;;;;;;39.57;18.47;;;5.50;92.80;;;;;;5029930;28;20045;-74
2020/12/01 11:36:39;;;;;;;43.10;20.33;;;5.50;92.90;;;;;;5029516;28;20037;-73
2020/12/01 11:39:11;;;;;;;39.37;19.00;;;5.40;92.70;;;;;;5028691;28;20026;-73
2020/12/01 11:41:37;;;;;;;38.77;18.33;;;5.40;92.80;;;;;;5027385;28;20133;-72
2020/12/01 11:44:04;;;;;;;43.97;21.90;;;5.40;92.90;;;;;;5011484;28;20033;-73
2020/12/01 11:46:30;;;;;;;45.00;21.27;;;5.40;92.80;;;;;;5029163;28;20033;-73
2020/12/01 11:49:01;;;;;;;43.57;19.10;;;5.40;92.90;;;;;;5028684;28;20436;-72
2020/12/01 11:51:28;;;;;;;38.87;18.50;;;5.40;93.00;;;;;;5029987;28;20176;-73
2020/12/01 11:53:54;;;;;;;37.87;18.97;;;5.40;93.00;;;;;;5029189;28;20041;-73
2020/12/01 11:56:20;;;;;;;34.80;17.40;;;5.40;93.10;;;;;;5029917;28;20636;-73
2020/12/01 11:58:46;;;;;;;38.33;17.87;;;5.40;93.00;;;;;;5029548;28;20037;-73
2020/12/01 12:01:12;;;;;;;37.23;18.43;;;5.50;93.00;;;;;;5029971;28;20494;-73
2020/12/01 12:03:38;;;;;;;34.57;17.07;;;5.50;93.10;;;;;;5028739;28;20052;-74
2020/12/01 12:06:03;;;;;;;35.90;18.83;;;5.60;93.00;;;;;;5032533;28;20046;-74
2020/12/01 12:08:29;;;;;;;37.57;18.70;;;5.60;93.00;;;;;;5033541;28;20043;-73
2020/12/01 12:10:55;;;;;;;35.33;16.23;;;5.60;93.00;;;;;;5033093;28;20044;-73
2020/12/01 12:13:21;;;;;;;35.33;17.23;;;5.60;93.00;;;;;;5032713;28;20034;-72
2020/12/01 12:15:46;;;;;;;34.57;18.73;;;5.60;92.80;;;;;;5033071;28;20095;-73
2020/12/01 12:18:12;;;;;;;37.60;18.63;;;5.60;92.70;;;;;;5032521;28;20041;-73
2020/12/01 12:20:38;;;;;;;36.83;17.13;;;5.60;92.70;;;;;;5038784;28;20045;-73
2020/12/01 12:23:04;;;;;;;33.90;17.53;;;5.70;92.80;;;;;;5038597;28;20060;-74
2020/12/01 12:25:29;;;;;;;31.77;16.37;;;5.60;92.80;;;;;;5033927;28;20748;-72
2020/12/01 12:27:55;;;;;;;34.53;17.60;;;5.70;92.90;;;;;;5038400;28;20486;-73
2020/12/01 12:30:21;;;;;;;34.83;17.40;;;5.70;93.00;;;;;;5032353;28;20053;-73
2020/12/01 12:32:47;;;;;;;32.27;16.80;;;5.70;92.90;;;;;;5032344;28;20053;-73
2020/12/01 12:35:13;;;;;;;36.20;17.80;;;5.70;92.80;;;;;;5035180;28;20045;-73
2020/12/01 12:37:39;;;;;;;31.47;16.97;;;5.60;92.80;;;;;;5018856;28;20041;-73
2020/12/01 12:40:06;;;;;;;32.73;17.33;;;5.60;92.70;;;;;;5046962;28;20048;-71
2020/12/01 12:42:32;;;;;;;30.37;15.37;;;5.60;92.70;;;;;;5049875;28;20060;-71
2020/12/01 12:44:57;;;;;;;37.20;16.60;;;5.60;92.70;;;;;;5051615;28;20044;-71
2020/12/01 12:47:23;;;;;;;39.50;18.87;;;5.50;92.70;;;;;;5052366;28;20037;-73
2020/12/01 12:49:49;;;;;;;37.73;18.00;;;5.50;92.80;;;;;;5034929;28;20482;-73
2020/12/01 12:52:15;;;;;;;36.27;17.47;;;5.50;92.80;;;;;;5051936;28;20033;-72
2020/12/01 12:54:41;;;;;;;35.70;17.50;;;5.50;92.90;;;;;;5052155;28;20029;-73
2020/12/01 12:57:07;;;;;;;41.90;18.63;;;5.50;92.80;;;;;;5052652;28;20037;-73
2020/12/01 12:59:32;;;;;;;34.93;16.63;;;5.50;92.80;;;;;;5048332;28;20037;-73
2020/12/01 13:01:58;;;;;;;35.47;16.33;;;5.60;92.80;;;;;;5042329;28;20103;-73
2020/12/01 13:04:24;;;;;;;33.67;16.67;;;5.50;92.80;;;;;;5049174;28;20087;-74
2020/12/01 13:06:50;;;;;;;33.60;16.17;;;5.50;92.70;;;;;;5039371;28;20111;-73
2020/12/01 13:09:16;;;;;;;38.30;17.17;;;5.50;92.70;;;;;;5032397;28;20030;-73
2020/12/01 13:11:42;;;;;;;32.93;15.53;;;5.50;92.60;;;;;;5031371;28;20045;-75
2020/12/01 13:14:08;;;;;;;36.03;16.73;;;5.50;92.70;;;;;;5032291;28;20037;-73
2020/12/01 13:16:34;;;;;;;38.13;17.83;;;5.50;92.50;;;;;;5031499;28;20636;-73
2020/12/01 13:18:59;;;;;;;39.80;18.70;;;5.40;92.50;;;;;;5032258;28;20033;-73
2020/12/01 13:21:25;;;;;;;38.77;17.50;;;5.40;92.60;;;;;;5032160;28;20044;-73
2020/12/01 13:23:51;;;;;;;37.27;17.30;;;5.40;92.70;;;;;;5031125;28;20041;-73
2020/12/01 13:26:19;;;;;;;41.97;18.73;;;5.40;92.60;;;;;;5032154;28;20029;-73
2020/12/01 13:28:45;;;;;;;40.17;17.87;;;5.40;92.60;;;;;;5032023;28;20034;-73
2020/12/01 13:31:11;;;;;;;41.03;17.87;;;5.30;92.70;;;;;;5031553;28;20057;-73
2020/12/01 13:33:38;;;;;;;36.57;17.27;;;5.30;92.70;;;;;;5028107;28;20037;-73
2020/12/01 13:36:04;;;;;;;40.97;18.37;;;5.30;92.70;;;;;;5029971;28;20120;-73
2020/12/01 13:38:29;;;;;;;38.87;17.57;;;5.30;92.80;;;;;;5031638;28;20094;-73
2020/12/01 13:40:55;;;;;;;39.13;18.07;;;5.30;92.70;;;;;;5031594;28;20045;-74
2020/12/01 13:43:21;;;;;;;37.10;17.43;;;5.30;92.70;;;;;;5031027;28;20033;-73
2020/12/01 13:45:47;;;;;;;36.10;17.53;;;5.30;92.70;;;;;;5031724;28;20042;-72
2020/12/01 13:48:13;;;;;;;35.90;16.40;;;5.30;92.70;;;;;;5027981;28;20267;-73